createdAt,value
2023-04-13T00:02:26.935Z,99358.22
2023-04-13T00:04:54.305Z,99362.72
2023-04-13T00:07:21.697Z,99363.00
2023-04-13T00:09:49.588Z,99352.94
2023-04-13T00:12:16.953Z,99357.94
2023-04-13T00:14:44.362Z,99359.53
2023-04-13T00:17:11.670Z,99367.59
2023-04-13T00:19:38.864Z,99371.25
2023-04-13T00:22:06.263Z,99378.44
2023-04-13T00:24:33.643Z,99373.44
2023-04-13T00:27:01.422Z,99370.69
2023-04-13T00:29:28.680Z,99384.56
2023-04-13T00:31:58.345Z,99379.25
2023-04-13T00:34:25.598Z,99362.66
2023-04-13T00:36:52.798Z,99366.47
2023-04-13T00:39:20.188Z,99359.53
2023-04-13T00:41:47.756Z,99347.81
2023-04-13T00:44:14.984Z,99345.94
2023-04-13T00:46:42.501Z,99357.94
2023-04-13T00:49:10.194Z,99357.72
2023-04-13T00:51:38.059Z,99358.78
2023-04-13T00:54:06.345Z,99359.31
2023-04-13T00:56:33.679Z,99361.97
2023-04-13T00:59:01.045Z,99360.44
2023-04-13T01:01:28.378Z,99367.66
2023-04-13T01:03:55.799Z,99372.47
2023-04-13T01:06:37.906Z,99377.53
2023-04-13T01:09:16.592Z,99362.84
2023-04-13T01:11:52.405Z,99365.75
2023-04-13T01:14:44.775Z,99368.94
2023-04-13T01:17:19.241Z,99370.06
2023-04-13T01:20:06.901Z,99378.09
2023-04-13T01:22:36.319Z,99375.94
2023-04-13T01:25:31.419Z,99379.16
2023-04-13T01:28:19.568Z,99372.47
2023-04-13T01:30:47.609Z,99370.03
2023-04-13T01:33:15.611Z,99384.19
2023-04-13T01:35:44.259Z,99383.34
2023-04-13T01:38:11.617Z,99389.66
2023-04-13T01:40:39.025Z,99385.72
2023-04-13T01:43:07.288Z,99383.84
2023-04-13T01:46:12.506Z,99384.97
2023-04-13T01:48:48.646Z,99383.44
2023-04-13T01:51:19.613Z,99383.50
2023-04-13T01:53:51.218Z,99382.66
2023-04-13T01:56:19.708Z,99385.88
2023-04-13T01:58:50.000Z,99387.22
2023-04-13T02:01:17.593Z,99384.84
2023-04-13T02:03:45.004Z,99392.78
2023-04-13T02:06:13.125Z,99389.34
2023-04-13T02:08:40.570Z,99382.44
2023-04-13T02:11:08.432Z,99384.56
2023-04-13T02:13:35.839Z,99386.16
2023-04-13T02:16:04.930Z,99397.28
2023-04-13T02:18:32.777Z,99387.22
2023-04-13T02:21:02.871Z,99382.41
2023-04-13T02:23:30.735Z,99389.88
2023-04-13T02:26:00.548Z,99391.22
2023-04-13T02:28:30.854Z,99396.53
2023-04-13T02:30:58.137Z,99396.75
2023-04-13T02:33:25.964Z,99401.00
2023-04-13T02:35:53.159Z,99401.28
2023-04-13T02:38:20.445Z,99406.31
2023-04-13T02:40:47.953Z,99407.38
2023-04-13T02:43:15.264Z,99406.84
2023-04-13T02:45:42.606Z,99404.97
2023-04-13T02:48:09.967Z,99406.06
2023-04-13T02:50:37.205Z,99415.06
2023-04-13T02:53:04.564Z,99418.03
2023-04-13T02:55:31.834Z,99416.16
2023-04-13T02:57:59.092Z,99410.84
2023-04-13T03:00:26.784Z,99411.66
2023-04-13T03:02:54.132Z,99416.44
2023-04-13T03:05:21.513Z,99415.31
2023-04-13T03:07:48.729Z,99412.69
2023-04-13T03:10:16.334Z,99418.50
2023-04-13T03:12:43.642Z,99425.06
2023-04-13T03:15:11.162Z,99422.16
2023-04-13T03:17:38.540Z,99429.03
2023-04-13T03:20:08.091Z,99431.88
2023-04-13T03:22:35.350Z,99433.81
2023-04-13T03:25:02.745Z,99432.22
2023-04-13T03:27:30.186Z,99425.56
2023-04-13T03:29:57.470Z,99430.13
2023-04-13T03:32:25.068Z,99421.63
2023-04-13T03:34:55.400Z,99425.63
2023-04-13T03:37:22.614Z,99427.91
2023-04-13T03:39:50.466Z,99435.00
2023-04-13T03:42:18.300Z,99425.50
2023-04-13T03:44:46.080Z,99428.31
2023-04-13T03:47:13.879Z,99421.38
2023-04-13T03:49:42.251Z,99425.94
2023-04-13T03:52:10.532Z,99433.09
2023-04-13T03:54:38.368Z,99439.47
2023-04-13T03:57:06.218Z,99436.78
2023-04-13T03:59:34.399Z,99434.78
2023-04-13T04:02:02.563Z,99437.13
2023-04-13T04:04:30.769Z,99438.38
2023-04-13T04:06:58.237Z,99435.22
2023-04-13T04:09:25.793Z,99448.22
2023-04-13T04:11:53.174Z,99445.66
2023-04-13T04:14:20.531Z,99445.00
2023-04-13T04:16:47.809Z,99443.50
2023-04-13T04:19:15.333Z,99452.81
2023-04-13T04:21:42.974Z,99454.91
2023-04-13T04:24:10.305Z,99464.63
2023-04-13T04:26:37.671Z,99463.44
2023-04-13T04:29:05.060Z,99468.06
2023-04-13T04:31:33.676Z,99464.09
2023-04-13T04:34:02.723Z,99462.69
2023-04-13T04:36:29.982Z,99476.94
2023-04-13T04:38:57.668Z,99468.78
2023-04-13T04:41:25.345Z,99477.03
2023-04-13T04:43:52.607Z,99473.44
2023-04-13T04:46:19.870Z,99478.00
2023-04-13T04:48:47.136Z,99481.91
2023-04-13T04:51:14.351Z,99477.22
2023-04-13T04:53:41.627Z,99482.25
2023-04-13T04:56:09.224Z,99482.50
2023-04-13T04:58:37.075Z,99488.09
2023-04-13T05:01:04.519Z,99489.31
2023-04-13T05:03:32.445Z,99486.50
2023-04-13T05:06:00.396Z,99485.34
2023-04-13T05:08:28.120Z,99500.28
2023-04-13T05:10:56.221Z,99509.28
2023-04-13T05:13:23.572Z,99510.38
2023-04-13T05:15:50.991Z,99517.97
2023-04-13T05:18:18.447Z,99505.78
2023-04-13T05:20:45.674Z,99501.75
2023-04-13T05:23:13.027Z,99511.88
2023-04-13T05:25:40.279Z,99504.66
2023-04-13T05:28:07.649Z,99502.16
2023-04-13T05:30:34.912Z,99497.88
2023-04-13T05:33:05.621Z,99503.78
2023-04-13T05:35:35.989Z,99511.81
2023-04-13T05:38:04.533Z,99511.97
2023-04-13T05:40:31.824Z,99510.78
2023-04-13T05:42:59.082Z,99507.31
2023-04-13T05:45:30.825Z,99499.88
2023-04-13T05:47:59.779Z,99513.28
2023-04-13T05:50:27.625Z,99506.06
2023-04-13T05:52:55.032Z,99502.13
2023-04-13T05:55:22.344Z,99507.66
2023-04-13T05:57:50.674Z,99509.50
2023-04-13T06:00:18.652Z,99511.75
2023-04-13T06:02:46.410Z,99499.47
2023-04-13T06:05:14.865Z,99509.50
2023-04-13T06:07:42.447Z,99496.69
2023-04-13T06:10:10.216Z,99503.91
2023-04-13T06:12:37.699Z,99491.72
2023-04-13T06:15:05.596Z,99493.78
2023-04-13T06:17:33.366Z,99499.94
2023-04-13T06:20:00.903Z,99499.16
2023-04-13T06:22:28.161Z,99498.25
2023-04-13T06:24:55.673Z,99484.81
2023-04-13T06:27:23.263Z,99483.13
2023-04-13T06:29:50.662Z,99482.97
2023-04-13T06:32:18.151Z,99479.34
2023-04-13T06:34:45.796Z,99489.06
2023-04-13T06:37:13.042Z,99493.03
2023-04-13T06:39:40.303Z,99492.28
2023-04-13T06:42:07.598Z,99482.97
2023-04-13T06:44:35.046Z,99485.13
2023-04-13T06:47:02.337Z,99487.75
2023-04-13T06:49:32.829Z,99489.09
2023-04-13T06:52:00.259Z,99491.94
2023-04-13T06:54:27.460Z,99494.81
2023-04-13T06:56:54.825Z,99489.88
2023-04-13T06:59:22.163Z,99486.72
2023-04-13T07:01:49.574Z,99495.19
2023-04-13T07:04:19.700Z,99490.03
2023-04-13T07:06:47.058Z,99495.25
2023-04-13T07:09:14.465Z,99496.53
2023-04-13T07:11:42.018Z,99497.06
2023-04-13T07:14:09.297Z,99495.97
2023-04-13T07:16:36.580Z,99505.63
2023-04-13T07:19:04.425Z,99505.13
2023-04-13T07:21:31.772Z,99499.97
2023-04-13T07:23:59.151Z,99499.88
2023-04-13T07:26:26.457Z,99491.88
2023-04-13T07:28:53.909Z,99493.19
2023-04-13T07:31:21.711Z,99488.31
2023-04-13T07:33:49.277Z,99482.84
2023-04-13T07:36:16.640Z,99485.28
2023-04-13T07:38:44.022Z,99492.47
2023-04-13T07:41:11.304Z,99498.44
2023-04-13T07:43:38.598Z,99504.13
2023-04-13T07:46:09.594Z,99504.47
2023-04-13T07:48:36.866Z,99513.59
2023-04-13T07:51:04.410Z,99499.84
2023-04-13T07:53:31.785Z,99500.41
2023-04-13T07:55:59.068Z,99507.94
2023-04-13T07:58:26.719Z,99504.44
2023-04-13T08:00:54.099Z,99496.03
2023-04-13T08:03:21.399Z,99492.72
2023-04-13T08:05:48.802Z,99492.19
2023-04-13T08:08:16.056Z,99489.88
2023-04-13T08:10:43.449Z,99477.91
2023-04-13T08:13:10.893Z,99480.00
2023-04-13T08:15:38.170Z,99490.22
2023-04-13T08:18:05.594Z,99489.00
2023-04-13T08:20:32.932Z,99476.97
2023-04-13T08:23:00.240Z,99476.38
2023-04-13T08:25:27.547Z,99471.50
2023-04-13T08:27:55.104Z,99466.78
2023-04-13T08:30:22.630Z,99460.66
2023-04-13T08:32:49.973Z,99465.75
2023-04-13T08:35:17.469Z,99468.47
2023-04-13T08:47:58.610Z,99450.59
2023-04-13T08:50:26.944Z,99451.44
2023-04-13T08:52:55.363Z,99453.31
2023-04-13T08:55:22.783Z,99456.19
2023-04-13T08:57:53.217Z,99450.31
2023-04-13T09:00:25.003Z,99447.91
2023-04-13T09:03:04.122Z,99447.44
2023-04-13T09:05:38.351Z,99433.91
2023-04-13T09:08:05.717Z,99439.03
2023-04-13T09:10:34.114Z,99431.41
2023-04-13T09:13:01.454Z,99429.50
2023-04-13T09:15:31.012Z,99427.19
2023-04-13T09:18:11.351Z,99430.94
2023-04-13T09:20:39.250Z,99423.22
2023-04-13T09:23:16.573Z,99425.84
2023-04-13T09:25:45.119Z,99428.69
2023-04-13T09:28:19.173Z,99423.13
2023-04-13T09:30:47.244Z,99422.25
2023-04-13T09:33:19.044Z,99409.59
2023-04-13T09:35:46.377Z,99405.06
2023-04-13T09:38:15.622Z,99412.16
2023-04-13T09:40:49.727Z,99421.00
2023-04-13T09:43:17.015Z,99414.47
2023-04-13T09:45:44.586Z,99423.72
2023-04-13T09:48:19.967Z,99424.63
2023-04-13T09:51:01.373Z,99429.91
2023-04-13T09:53:40.206Z,99424.91
2023-04-13T09:56:07.892Z,99441.56
2023-04-13T09:58:53.387Z,99431.84
2023-04-13T10:01:21.478Z,99426.31
2023-04-13T10:03:48.841Z,99417.69
2023-04-13T10:06:16.265Z,99422.34
2023-04-13T10:08:43.595Z,99416.19
2023-04-13T10:11:13.118Z,99412.81
2023-04-13T10:14:00.830Z,99418.56
2023-04-13T10:16:34.270Z,99419.06
2023-04-13T10:19:16.751Z,99403.50
2023-04-13T10:21:47.683Z,99407.97
2023-04-13T10:24:15.331Z,99398.56
2023-04-13T10:26:43.127Z,99406.66
2023-04-13T10:29:10.836Z,99418.31
2023-04-13T10:31:39.917Z,99403.84
2023-04-13T10:34:10.059Z,99407.13
2023-04-13T10:36:42.069Z,99414.63
2023-04-13T10:39:10.507Z,99401.53
2023-04-13T10:41:38.186Z,99397.13
2023-04-13T10:44:08.163Z,99399.75
2023-04-13T10:46:35.892Z,99400.34
2023-04-13T10:49:04.632Z,99393.41
2023-04-13T10:51:42.887Z,99389.59
2023-04-13T10:54:16.300Z,99388.25
2023-04-13T10:56:43.649Z,99386.41
2023-04-13T10:59:11.211Z,99375.44
2023-04-13T11:01:38.586Z,99379.41
2023-04-13T11:04:08.962Z,99378.91
2023-04-13T11:06:38.770Z,99372.84
2023-04-13T11:09:07.079Z,99370.66
2023-04-13T11:11:36.632Z,99371.25
2023-04-13T11:14:04.085Z,99366.72
2023-04-13T11:16:31.639Z,99356.19
2023-04-13T11:19:03.831Z,99363.69
2023-04-13T11:21:31.312Z,99359.47
2023-04-13T11:23:58.759Z,99357.06
2023-04-13T11:26:36.147Z,99358.72
2023-04-13T11:29:04.626Z,99352.34
2023-04-13T11:31:40.083Z,99360.19
2023-04-13T11:34:08.092Z,99346.81
2023-04-13T11:36:35.704Z,99340.16
2023-04-13T11:39:03.157Z,99335.72
2023-04-13T11:41:30.637Z,99343.50
2023-04-13T11:44:00.835Z,99349.63
2023-04-13T11:46:28.897Z,99333.22
2023-04-13T11:48:56.893Z,99342.13
2023-04-13T11:51:24.902Z,99340.03
2023-04-13T11:53:53.447Z,99329.97
2023-04-13T11:56:21.664Z,99325.69
2023-04-13T11:58:53.229Z,99329.84
2023-04-13T12:01:27.093Z,99330.41
2023-04-13T12:04:15.694Z,99327.28
2023-04-13T12:06:46.197Z,99323.78
2023-04-13T12:09:17.675Z,99313.63
2023-04-13T12:11:51.910Z,99305.97
2023-04-13T12:19:23.838Z,99308.16
2023-04-13T12:21:53.932Z,99294.00
2023-04-13T12:24:32.735Z,99296.34
2023-04-13T12:29:38.589Z,99287.91
2023-04-13T12:32:15.232Z,99293.28
2023-04-13T12:34:43.784Z,99281.22
2023-04-13T12:37:17.674Z,99288.66
2023-04-13T12:39:45.077Z,99273.94
2023-04-13T12:42:12.477Z,99277.78
2023-04-13T12:44:39.828Z,99277.13
2023-04-13T12:47:07.179Z,99283.81
2023-04-13T12:49:34.549Z,99289.03
2023-04-13T12:52:01.789Z,99281.94
2023-04-13T12:54:29.104Z,99279.59
2023-04-13T12:56:56.427Z,99265.88
2023-04-13T12:59:23.968Z,99272.38
2023-04-13T13:01:51.424Z,99270.56
2023-04-13T13:04:18.891Z,99267.72
2023-04-13T13:06:47.647Z,99259.88
2023-04-13T13:09:15.085Z,99254.78
2023-04-13T13:11:42.913Z,99267.31
2023-04-13T13:14:11.334Z,99258.94
2023-04-13T13:16:39.123Z,99261.13
2023-04-13T13:19:06.652Z,99258.38
2023-04-13T13:21:34.249Z,99252.56
2023-04-13T13:24:01.528Z,99248.31
2023-04-13T13:26:39.842Z,99248.03
2023-04-13T13:29:16.291Z,99246.94
2023-04-13T13:31:44.045Z,99241.97
2023-04-13T13:34:11.661Z,99240.38
2023-04-13T13:36:39.096Z,99249.09
2023-04-13T13:39:09.306Z,99247.94
2023-04-13T13:41:36.900Z,99246.00
2023-04-13T13:44:04.182Z,99240.88
2023-04-13T13:46:32.156Z,99241.16
2023-04-13T13:48:59.906Z,99243.69
2023-04-13T13:51:27.740Z,99240.97
2023-04-13T13:53:55.059Z,99249.09
2023-04-13T13:56:23.236Z,99241.94
2023-04-13T13:58:50.879Z,99242.13
2023-04-13T14:01:18.318Z,99259.22
2023-04-13T14:03:45.891Z,99250.63
2023-04-13T14:06:13.267Z,99256.22
2023-04-13T14:08:40.603Z,99257.25
2023-04-13T14:11:09.812Z,99252.53
2023-04-13T14:13:37.271Z,99251.94
2023-04-13T14:16:05.267Z,99248.06
2023-04-13T14:18:33.072Z,99250.44
2023-04-13T14:21:00.478Z,99248.22
2023-04-13T14:23:27.899Z,99249.47
2023-04-13T14:25:55.347Z,99248.38
2023-04-13T14:28:22.654Z,99245.81
2023-04-13T14:30:50.565Z,99240.56
2023-04-13T14:33:17.892Z,99234.81
2023-04-13T14:35:45.178Z,99234.34
2023-04-13T14:38:12.574Z,99233.88
2023-04-13T14:40:39.859Z,99235.78
2023-04-13T14:43:07.123Z,99231.66
2023-04-13T14:45:34.403Z,99227.44
2023-04-13T14:48:01.858Z,99234.16
2023-04-13T14:50:29.269Z,99233.66
2023-04-13T14:52:56.733Z,99227.44
2023-04-13T14:55:24.287Z,99221.09
2023-04-13T14:57:51.775Z,99222.50
2023-04-13T15:00:19.700Z,99226.53
2023-04-13T15:02:51.256Z,99225.72
2023-04-13T15:05:19.156Z,99232.09
2023-04-13T15:07:46.565Z,99225.97
2023-04-13T15:10:13.970Z,99219.50
2023-04-13T15:12:41.201Z,99217.31
2023-04-13T15:15:09.216Z,99220.13
2023-04-13T15:17:36.616Z,99217.94
2023-04-13T15:20:04.221Z,99216.44
2023-04-13T15:22:31.607Z,99217.16
2023-04-13T15:25:00.338Z,99220.44
2023-04-13T15:27:27.709Z,99214.09
2023-04-13T15:29:58.910Z,99221.16
2023-04-13T15:32:29.537Z,99234.88
2023-04-13T15:34:57.100Z,99229.91
2023-04-13T15:37:24.498Z,99222.56
2023-04-13T15:39:51.849Z,99226.50
2023-04-13T15:42:19.108Z,99222.91
2023-04-13T15:44:46.906Z,99222.75
2023-04-13T15:47:14.248Z,99224.91
2023-04-13T15:49:41.549Z,99215.47
2023-04-13T15:52:08.968Z,99213.13
2023-04-13T15:54:36.236Z,99213.22
2023-04-13T15:57:03.698Z,99218.81
2023-04-13T15:59:31.109Z,99219.22
2023-04-13T16:01:58.775Z,99211.94
2023-04-13T16:04:26.597Z,99209.22
2023-04-13T16:07:09.121Z,99207.47
2023-04-13T16:09:43.668Z,99205.81
2023-04-13T16:12:11.501Z,99205.38
2023-04-13T16:14:39.405Z,99203.53
2023-04-13T16:17:10.799Z,99209.31
2023-04-13T16:19:38.186Z,99206.50
2023-04-13T16:22:06.222Z,99213.47
2023-04-13T16:24:39.877Z,99204.72
2023-04-13T16:27:08.116Z,99206.56
2023-04-13T16:29:35.540Z,99206.59
2023-04-13T16:32:03.018Z,99208.59
2023-04-13T16:34:31.701Z,99213.41
2023-04-13T16:36:59.029Z,99208.44
2023-04-13T16:39:26.707Z,99212.31
2023-04-13T16:41:54.160Z,99211.41
2023-04-13T16:44:21.475Z,99208.94
2023-04-13T16:46:49.233Z,99205.53
2023-04-13T16:49:16.781Z,99204.22
2023-04-13T16:51:45.041Z,99207.50
2023-04-13T16:54:12.344Z,99219.66
2023-04-13T16:56:39.765Z,99215.69
2023-04-13T16:59:07.079Z,99232.28
2023-04-13T17:01:35.604Z,99229.69
2023-04-13T17:04:04.496Z,99223.41
2023-04-13T17:06:35.925Z,99224.75
2023-04-13T17:09:03.936Z,99230.41
2023-04-13T17:11:32.030Z,99235.47
2023-04-13T17:13:59.333Z,99235.69
2023-04-13T17:16:26.611Z,99234.31
2023-04-13T17:18:54.025Z,99238.25
2023-04-13T17:21:21.423Z,99234.66
2023-04-13T17:23:48.703Z,99232.06
2023-04-13T17:26:16.045Z,99228.78
2023-04-13T17:28:43.496Z,99230.97
2023-04-13T17:31:10.869Z,99231.06
2023-04-13T17:33:38.300Z,99234.81
2023-04-13T17:36:05.804Z,99237.13
2023-04-13T17:38:33.172Z,99241.75
2023-04-13T17:41:18.338Z,99253.63
2023-04-13T17:43:46.977Z,99252.50
2023-04-13T17:46:14.401Z,99264.16
2023-04-13T17:48:41.816Z,99257.59
2023-04-13T17:51:11.017Z,99263.56
2023-04-13T17:53:38.806Z,99271.50
2023-04-13T17:56:06.939Z,99268.59
2023-04-13T17:58:34.521Z,99280.47
2023-04-13T18:01:11.565Z,99293.41
2023-04-13T18:03:39.382Z,99297.56
2023-04-13T18:06:07.293Z,99288.78
2023-04-13T18:08:34.698Z,99297.50
2023-04-13T18:11:02.586Z,99294.00
2023-04-13T18:13:30.187Z,99300.59
2023-04-13T18:15:57.715Z,99304.34
2023-04-13T18:18:25.109Z,99307.22
2023-04-13T18:20:52.774Z,99308.94
2023-04-13T18:23:21.339Z,99314.50
2023-04-13T18:25:52.066Z,99314.72
2023-04-13T18:28:19.800Z,99318.03
2023-04-13T18:30:47.148Z,99309.31
2023-04-13T18:33:14.937Z,99313.25
2023-04-13T18:35:44.952Z,99318.72
2023-04-13T18:38:12.401Z,99318.50
2023-04-13T18:40:39.668Z,99316.97
2023-04-13T18:43:07.653Z,99325.97
2023-04-13T18:45:35.043Z,99321.78
2023-04-13T18:48:02.813Z,99333.81
2023-04-13T18:50:30.209Z,99323.41
2023-04-13T18:52:57.639Z,99315.13
2023-04-13T18:55:24.951Z,99316.31
2023-04-13T18:57:52.333Z,99320.13
2023-04-13T19:00:20.344Z,99324.63
2023-04-13T19:02:49.852Z,99318.19
2023-04-13T19:05:17.467Z,99317.94
2023-04-13T19:08:00.514Z,99324.03
2023-04-13T19:10:28.379Z,99322.94
2023-04-13T19:12:55.808Z,99316.06
2023-04-13T19:15:23.833Z,99318.16
2023-04-13T19:17:52.253Z,99320.56
2023-04-13T19:20:25.492Z,99328.19
2023-04-13T19:22:52.855Z,99313.56
2023-04-13T19:25:20.335Z,99314.50
2023-04-13T19:27:48.678Z,99316.06
2023-04-13T19:30:16.943Z,99310.16
2023-04-13T19:32:46.590Z,99322.75
2023-04-13T19:35:15.540Z,99322.19
2023-04-13T19:37:43.085Z,99322.34
2023-04-13T19:40:10.966Z,99319.53
2023-04-13T19:42:38.685Z,99325.19
2023-04-13T19:45:06.435Z,99329.50
2023-04-13T19:47:35.819Z,99327.03
2023-04-13T19:50:04.340Z,99323.06
2023-04-13T19:52:31.659Z,99333.16
2023-04-13T19:54:59.002Z,99331.44
2023-04-13T19:57:26.879Z,99325.91
2023-04-13T19:59:54.742Z,99323.19
2023-04-13T20:02:22.302Z,99328.31
2023-04-13T20:04:49.714Z,99320.25
2023-04-13T20:07:19.650Z,99324.97
2023-04-13T20:09:47.022Z,99323.06
2023-04-13T20:12:14.430Z,99320.38
2023-04-13T20:14:44.897Z,99308.69
2023-04-13T20:17:12.525Z,99303.78
2023-04-13T20:19:39.871Z,99311.53
2023-04-13T20:22:07.188Z,99305.53
2023-04-13T20:24:34.500Z,99301.91
2023-04-13T20:27:01.840Z,99300.28
2023-04-13T20:29:29.192Z,99294.75
2023-04-13T20:31:56.582Z,99298.72
2023-04-13T20:34:23.904Z,99299.53
2023-04-13T20:36:51.258Z,99302.19
2023-04-13T20:39:18.806Z,99308.56
2023-04-13T20:41:46.106Z,99301.59
2023-04-13T20:44:13.415Z,99295.59
2023-04-13T20:46:40.814Z,99306.81
2023-04-13T20:49:08.162Z,99304.25
2023-04-13T20:51:35.482Z,99297.16
2023-04-13T20:54:03.300Z,99305.22
2023-04-13T20:56:30.703Z,99308.84
2023-04-13T20:58:58.305Z,99307.59
2023-04-13T21:01:25.839Z,99304.41
2023-04-13T21:04:08.313Z,99305.03
2023-04-13T21:06:49.036Z,99308.03
2023-04-13T21:09:25.336Z,99299.94
2023-04-13T21:11:52.706Z,99301.34
2023-04-13T21:14:20.440Z,99297.75
2023-04-13T21:16:47.763Z,99294.44
2023-04-13T21:19:15.134Z,99296.13
2023-04-13T21:21:42.666Z,99291.06
2023-04-13T21:24:10.180Z,99293.31
2023-04-13T21:26:37.765Z,99304.66
2023-04-13T21:29:05.070Z,99297.69
2023-04-13T21:31:32.420Z,99291.19
2023-04-13T21:34:00.032Z,99289.19
2023-04-13T21:38:58.151Z,99303.22
2023-04-13T21:41:25.601Z,99300.56
2023-04-13T21:43:52.895Z,99297.22
2023-04-13T21:46:20.581Z,99293.13
2023-04-13T21:48:47.895Z,99298.94
2023-04-13T21:51:15.255Z,99307.91
2023-04-13T21:53:42.562Z,99309.03
2023-04-13T21:56:09.846Z,99313.66
2023-04-13T21:58:39.301Z,99312.56
2023-04-13T22:01:07.453Z,99311.72
2023-04-13T22:03:36.545Z,99318.25
2023-04-13T22:06:10.325Z,99317.41
2023-04-13T22:08:38.598Z,99322.28
2023-04-13T22:11:06.602Z,99325.31
2023-04-13T22:13:34.089Z,99322.81
2023-04-13T22:16:01.438Z,99320.56
2023-04-13T22:18:28.740Z,99316.69
2023-04-13T22:20:58.314Z,99316.53
2023-04-13T22:23:26.280Z,99310.44
2023-04-13T22:25:55.524Z,99313.78
2023-04-13T22:28:22.986Z,99314.72
2023-04-13T22:30:50.706Z,99312.75
2023-04-13T22:33:18.856Z,99316.84
2023-04-13T22:35:46.177Z,99310.47
2023-04-13T22:38:13.603Z,99303.69
2023-04-13T22:40:41.193Z,99305.34
2023-04-13T22:43:08.467Z,99321.00
2023-04-13T22:45:35.787Z,99305.06
2023-04-13T22:48:03.504Z,99304.97
2023-04-13T22:50:31.395Z,99300.53
2023-04-13T22:52:58.712Z,99300.41
2023-04-13T22:55:25.993Z,99297.53
2023-04-13T22:57:53.323Z,99295.16
2023-04-13T23:00:20.779Z,99299.22
2023-04-13T23:02:48.596Z,99298.63
2023-04-13T23:05:19.398Z,99296.41
2023-04-13T23:07:46.680Z,99299.03
2023-04-13T23:10:16.491Z,99296.25
2023-04-13T23:12:44.757Z,99291.84
2023-04-13T23:15:13.352Z,99285.84
2023-04-13T23:17:40.622Z,99286.59
2023-04-13T23:20:08.293Z,99276.69
2023-04-13T23:22:35.656Z,99283.53
2023-04-13T23:25:02.971Z,99290.75
2023-04-13T23:27:30.265Z,99286.78
2023-04-13T23:29:57.940Z,99287.41
2023-04-13T23:32:25.467Z,99291.97
2023-04-13T23:34:53.297Z,99297.50
2023-04-13T23:37:20.498Z,99310.19
2023-04-13T23:39:47.810Z,99307.22
2023-04-13T23:42:15.065Z,99305.47
2023-04-13T23:44:42.899Z,99305.47
2023-04-13T23:47:12.696Z,99305.75
2023-04-13T23:49:40.068Z,99302.66
2023-04-13T23:52:09.306Z,99299.09
2023-04-13T23:54:36.733Z,99289.56
2023-04-13T23:57:04.106Z,99291.66
2023-04-13T23:59:31.454Z,99287.78
